Time;durP1;ratioP1;P1;durP2;ratioP2;P2;SDS_P1;SDS_P2;PMS_P1;PMS_P2;Temp;Humidity;BMP_temperature;BMP_pressure;BME280_temperature;BME280_humidity;BME280_pressure;Samples;Min_cycle;Max_cycle;Signal;HPM_P1;HPM_P2
2023/08/31 00:00:09;;;;;;;6.20;3.75;;;;;;;23.67;42.44;98598.50;5136706;27;20030;-75
2023/08/31 00:02:34;;;;;;;10.30;3.33;;;;;;;23.78;42.47;98595.41;5135957;27;20110;-75
2023/08/31 00:05:00;;;;;;;6.55;3.78;;;;;;;23.82;41.77;98590.38;5135927;27;20047;-76
2023/08/31 00:07:25;;;;;;;7.05;3.22;;;;;;;23.82;41.84;98590.38;5136357;27;20031;-76
2023/08/31 00:09:51;;;;;;;6.88;3.60;;;;;;;23.96;41.81;98589.22;5135900;27;20465;-75
2023/08/31 00:12:16;;;;;;;5.03;2.92;;;;;;;23.96;41.80;98595.72;5135548;27;20027;-75
2023/08/31 00:14:42;;;;;;;7.05;3.78;;;;;;;24.00;41.65;98600.53;5135732;27;20027;-75
2023/08/31 00:17:07;;;;;;;7.68;4.18;;;;;;;23.61;42.85;98598.22;5117206;27;20035;-75
2023/08/31 00:19:32;;;;;;;3.88;3.00;;;;;;;23.51;42.55;98594.41;5117264;27;20058;-76
2023/08/31 00:21:58;;;;;;;5.65;3.20;;;;;;;23.29;43.40;98594.13;5135548;27;20015;-75
2023/08/31 00:24:29;;;;;;;15.43;4.63;;;;;;;23.28;43.55;98603.91;5117039;27;20516;-75
2023/08/31 00:26:55;;;;;;;8.32;3.70;;;;;;;23.06;43.75;98607.25;5135481;27;20046;-75
2023/08/31 00:29:20;;;;;;;7.47;3.47;;;;;;;23.35;43.29;98609.47;5135352;27;20467;-75
2023/08/31 00:31:48;;;;;;;8.90;3.85;;;;;;;23.43;43.22;98612.94;5135612;27;20031;-75
2023/08/31 00:34:14;;;;;;;6.90;3.80;;;;;;;23.46;42.93;98619.81;5135300;27;20031;-76
2023/08/31 00:36:40;;;;;;;8.20;3.30;;;;;;;23.49;42.91;98616.06;5135316;27;20019;-75
2023/08/31 00:39:06;;;;;;;8.40;3.40;;;;;;;23.36;43.12;98616.75;5135177;27;20026;-75
2023/08/31 00:41:32;;;;;;;4.75;3.45;;;;;;;23.40;42.85;98614.63;5135206;27;20061;-75
2023/08/31 00:43:58;;;;;;;8.73;3.60;;;;;;;23.48;43.07;98620.16;5135138;27;20023;-75
2023/08/31 00:46:27;;;;;;;6.25;3.25;;;;;;;23.19;43.58;98620.81;5113683;27;20026;-76
2023/08/31 00:48:53;;;;;;;5.38;3.72;;;;;;;23.22;43.27;98594.25;5115944;27;20038;-76
2023/08/31 00:51:19;;;;;;;9.05;3.75;;;;;;;23.37;43.11;98615.50;5115543;27;20026;-75
2023/08/31 00:53:45;;;;;;;5.85;3.90;;;;;;;23.33;43.25;98614.00;5127825;27;20020;-75
2023/08/31 00:56:10;;;;;;;4.03;2.95;;;;;;;23.37;43.41;98621.22;5114106;28;20027;-75
2023/08/31 00:58:35;;;;;;;12.32;3.90;;;;;;;23.45;42.99;98623.91;5114196;28;20052;-75
2023/08/31 01:01:15;;;;;;;7.10;4.22;;;;;;;23.62;42.91;98616.97;5114339;28;20023;-75
2023/08/31 01:03:58;;;;;;;12.68;5.03;;;;;;;23.67;42.81;98622.16;5114132;28;20032;-75
2023/08/31 01:06:41;;;;;;;7.05;2.80;;;;;;;23.76;42.71;98617.84;5114858;28;20032;-75
2023/08/31 01:09:26;;;;;;;7.28;4.25;;;;;;;23.81;42.76;98628.75;5114652;28;20039;-75
2023/08/31 01:12:11;;;;;;;5.63;3.40;;;;;;;23.89;42.55;98633.03;5114012;28;20023;-75
2023/08/31 01:14:47;;;;;;;7.30;3.30;;;;;;;23.89;42.28;98646.50;5094774;28;20023;-75
2023/08/31 01:17:15;;;;;;;5.82;3.45;;;;;;;23.86;41.86;98650.25;5114049;28;20102;-75
2023/08/31 01:19:52;;;;;;;4.70;3.20;;;;;;;23.84;42.38;98639.25;5113817;28;20498;-75
2023/08/31 01:22:47;;;;;;;7.28;3.60;;;;;;;23.80;42.25;98649.97;5095504;28;20036;-75
2023/08/31 01:25:13;;;;;;;10.25;3.78;;;;;;;23.73;42.38;98645.25;5107994;28;20031;-75
2023/08/31 01:27:39;;;;;;;10.88;4.25;;;;;;;23.86;42.49;98653.91;5095481;28;20027;-76
2023/08/31 01:30:06;;;;;;;9.75;4.00;;;;;;;23.93;41.89;98642.31;5113654;28;20055;-75
2023/08/31 01:32:32;;;;;;;6.75;3.40;;;;;;;23.94;42.36;98651.66;5113670;28;20478;-76
2023/08/31 01:34:58;;;;;;;6.18;4.03;;;;;;;23.84;41.92;98645.78;5095076;28;20119;-76
2023/08/31 01:37:34;;;;;;;5.72;3.50;;;;;;;23.80;42.04;98664.25;5113529;28;20102;-76
2023/08/31 01:40:10;;;;;;;11.48;3.63;;;;;;;23.46;42.42;98666.25;5113469;28;20027;-75
2023/08/31 01:42:36;;;;;;;10.85;4.30;;;;;;;23.48;42.16;98668.69;5095065;28;20055;-75
2023/08/31 01:45:05;;;;;;;10.85;4.03;;;;;;;23.46;41.94;98659.75;5113531;28;20393;-75
2023/08/31 01:47:31;;;;;;;4.53;3.28;;;;;;;23.46;42.18;98665.47;5113372;28;20027;-75
2023/08/31 01:49:56;;;;;;;12.82;4.00;;;;;;;23.44;41.36;98667.97;5113110;28;20084;-75
2023/08/31 01:52:22;;;;;;;4.72;3.20;;;;;;;23.34;41.57;98669.78;5094909;28;20027;-75
2023/08/31 01:54:48;;;;;;;9.32;3.78;;;;;;;23.08;41.93;98670.34;5094805;28;20389;-75
2023/08/31 01:57:13;;;;;;;4.93;3.92;;;;;;;23.21;41.31;98676.16;5113179;28;20133;-75
2023/08/31 01:59:38;;;;;;;7.28;3.65;;;;;;;23.07;41.67;98679.31;5112979;28;20044;-75
2023/08/31 02:02:04;;;;;;;4.38;3.13;;;;;;;23.20;41.49;98671.69;5094776;28;20024;-75
2023/08/31 02:04:29;;;;;;;8.63;3.70;;;;;;;23.27;41.32;98682.16;5112026;28;20024;-75
2023/08/31 02:06:55;;;;;;;4.90;3.60;;;;;;;23.11;41.50;98685.78;5112984;28;20030;-75
2023/08/31 02:09:20;;;;;;;7.43;3.80;;;;;;;22.76;42.59;98674.66;5112849;28;20016;-75
2023/08/31 02:11:46;;;;;;;12.57;4.80;;;;;;;22.60;43.38;98674.59;5112828;28;20028;-75
2023/08/31 02:14:11;;;;;;;5.47;3.47;;;;;;;22.42;44.10;98690.75;5112759;28;20309;-75
2023/08/31 02:16:37;;;;;;;8.75;3.47;;;;;;;22.47;43.78;98683.75;5094554;28;20028;-75
2023/08/31 02:19:02;;;;;;;8.15;4.35;;;;;;;22.62;43.82;98680.66;5094471;28;20023;-75
2023/08/31 02:21:28;;;;;;;5.32;3.83;;;;;;;22.57;43.67;98682.75;5112758;28;20016;-75
2023/08/31 02:23:53;;;;;;;6.72;3.92;;;;;;;22.43;43.71;98683.81;5112480;28;20080;-75
2023/08/31 02:26:19;;;;;;;10.40;4.13;;;;;;;22.54;43.39;98677.13;5112528;28;20015;-75
2023/08/31 02:28:44;;;;;;;5.13;3.47;;;;;;;22.57;43.41;98677.06;5094374;28;20024;-75
2023/08/31 02:31:11;;;;;;;6.07;3.45;;;;;;;22.86;42.91;98695.63;5112324;28;20511;-75
2023/08/31 02:33:36;;;;;;;7.50;4.28;;;;;;;22.95;42.81;98680.81;5112493;28;20015;-75
2023/08/31 02:36:02;;;;;;;6.57;4.10;;;;;;;23.03;42.29;98679.41;5112377;28;20023;-75
2023/08/31 02:38:27;;;;;;;6.25;3.72;;;;;;;23.10;42.23;98679.25;5112321;28;20110;-75
2023/08/31 02:40:52;;;;;;;6.35;3.65;;;;;;;23.11;41.99;98682.91;5112261;28;20016;-75
2023/08/31 02:43:18;;;;;;;4.75;3.55;;;;;;;22.95;42.33;98689.34;5093881;28;20020;-75
2023/08/31 02:45:43;;;;;;;6.60;4.30;;;;;;;22.92;42.27;98690.22;5093910;28;20028;-75
2023/08/31 02:48:10;;;;;;;6.38;3.83;;;;;;;22.77;42.26;98696.22;5112148;28;20020;-75
2023/08/31 02:50:35;;;;;;;7.53;3.78;;;;;;;22.75;42.30;98709.31;5111635;28;20508;-75
2023/08/31 02:53:01;;;;;;;6.93;4.13;;;;;;;22.71;42.45;98710.16;5112110;28;20027;-75
2023/08/31 02:55:27;;;;;;;7.22;3.60;;;;;;;22.61;42.88;98710.38;5111846;28;20079;-75
2023/08/31 02:57:53;;;;;;;7.72;3.90;;;;;;;22.62;42.68;98709.94;5093699;28;20048;-75
2023/08/31 03:00:21;;;;;;;12.40;4.13;;;;;;;22.54;42.78;98712.09;5093571;28;20051;-75
2023/08/31 03:02:48;;;;;;;21.73;4.30;;;;;;;21.95;44.41;98714.31;5111990;28;20023;-75
2023/08/31 03:05:15;;;;;;;9.45;4.53;;;;;;;21.86;44.73;98722.63;5094169;28;20048;-75
2023/08/31 03:07:41;;;;;;;16.15;5.20;;;;;;;22.08;44.30;98717.38;5111884;28;20023;-75
2023/08/31 03:10:07;;;;;;;15.65;7.72;;;;;;;22.19;44.13;98717.19;5112073;28;20510;-75
2023/08/31 03:12:32;;;;;;;22.20;10.15;;;;;;;22.26;44.13;98713.41;5111711;28;20501;-75
2023/08/31 03:14:57;;;;;;;21.40;11.43;;;;;;;22.28;43.86;98705.25;5093277;28;20034;-75
2023/08/31 03:17:23;;;;;;;13.55;7.90;;;;;;;22.24;43.91;98704.50;5093403;28;20042;-75
2023/08/31 03:19:49;;;;;;;22.63;11.57;;;;;;;22.30;43.51;98714.94;5111553;28;20050;-75
2023/08/31 03:22:14;;;;;;;29.83;13.90;;;;;;;22.32;43.52;98713.72;5111611;28;20024;-75
2023/08/31 03:24:40;;;;;;;32.85;16.23;;;;;;;22.15;43.82;98707.91;5093229;28;20031;-75
2023/08/31 03:27:05;;;;;;;30.40;18.23;;;;;;;22.27;43.80;98726.44;5111561;28;20077;-75
2023/08/31 03:29:32;;;;;;;15.63;6.95;;;;;;;22.29;43.77;98716.19;5112236;28;20027;-75
2023/08/31 03:31:57;;;;;;;24.55;6.07;;;;;;;22.32;43.83;98722.25;5093158;28;20045;-75
2023/08/31 03:34:23;;;;;;;21.33;5.93;;;;;;;22.11;44.16;98725.03;5093283;28;20023;-75
2023/08/31 03:36:50;;;;;;;13.82;6.55;;;;;;;22.25;44.13;98723.19;5111362;28;20024;-75
2023/08/31 03:39:15;;;;;;;15.23;6.25;;;;;;;22.16;43.99;98720.91;5111633;28;20415;-75
2023/08/31 03:41:41;;;;;;;15.82;8.30;;;;;;;22.10;44.29;98720.59;5093104;28;20020;-75
2023/08/31 03:44:06;;;;;;;27.15;11.02;;;;;;;22.19;44.18;98719.25;5111437;28;20088;-75
2023/08/31 03:46:32;;;;;;;24.15;12.43;;;;;;;21.93;44.64;98722.47;5093026;28;20081;-75
2023/08/31 03:48:57;;;;;;;20.35;8.45;;;;;;;21.92;44.81;98735.09;5111375;28;20019;-75
2023/08/31 03:51:23;;;;;;;21.90;6.30;;;;;;;22.02;44.42;98739.00;5111188;28;20039;-75
2023/08/31 03:53:48;;;;;;;15.07;5.70;;;;;;;22.20;44.04;98738.72;5093056;28;20028;-75
2023/08/31 03:56:13;;;;;;;24.48;8.05;;;;;;;22.22;44.15;98735.44;5111248;28;20024;-76
2023/08/31 03:58:39;;;;;;;20.88;9.20;;;;;;;22.24;44.23;98744.34;5092887;28;20055;-75
2023/08/31 04:01:05;;;;;;;23.80;10.00;;;;;;;22.10;44.79;98745.41;5092948;28;20034;-75
2023/08/31 04:03:30;;;;;;;22.45;8.75;;;;;;;21.88;45.53;98757.94;5111328;28;20023;-75
2023/08/31 04:05:56;;;;;;;9.95;4.15;;;;;;;21.77;45.73;98745.91;5111126;28;20049;-75
2023/08/31 04:08:22;;;;;;;6.38;3.47;;;;;;;21.86;45.56;98756.78;5111224;28;20024;-75
2023/08/31 04:10:47;;;;;;;11.75;3.67;;;;;;;21.69;46.26;98762.28;5111104;28;20103;-75
2023/08/31 04:13:13;;;;;;;12.88;4.38;;;;;;;21.80;45.99;98765.00;5111066;28;20550;-75
2023/08/31 04:15:38;;;;;;;15.70;3.78;;;;;;;21.91;45.56;98770.50;5092797;28;20024;-75
2023/08/31 04:18:04;;;;;;;5.93;3.45;;;;;;;21.86;45.90;98776.69;5111173;28;20031;-75
2023/08/31 04:20:30;;;;;;;13.95;3.90;;;;;;;21.96;45.62;98775.72;5111004;28;20487;-75
2023/08/31 04:22:56;;;;;;;18.77;5.75;;;;;;;22.03;45.41;98789.03;5111069;28;20024;-75
2023/08/31 04:25:21;;;;;;;12.85;4.53;;;;;;;22.11;45.23;98790.53;5092619;28;20507;-76
2023/08/31 04:27:47;;;;;;;10.95;5.10;;;;;;;22.20;45.14;98789.97;5094039;28;20077;-75
2023/08/31 04:30:12;;;;;;;10.05;4.00;;;;;;;22.33;44.43;98795.09;5096564;28;20488;-75
2023/08/31 04:32:38;;;;;;;13.77;4.05;;;;;;;22.22;44.90;98810.31;5114603;28;20015;-75
2023/08/31 04:35:07;;;;;;;22.17;4.43;;;;;;;22.18;45.25;98801.00;5114859;28;20019;-75
2023/08/31 04:37:33;;;;;;;9.25;4.03;;;;;;;22.25;45.17;98798.06;5115256;28;20030;-75
2023/08/31 04:39:58;;;;;;;12.55;4.88;;;;;;;22.43;44.94;98799.78;5114747;28;20578;-75
2023/08/31 04:42:24;;;;;;;15.55;5.78;;;;;;;22.58;44.91;98803.22;5114553;28;20032;-75
2023/08/31 04:44:50;;;;;;;31.52;7.03;;;;;;;22.60;44.90;98794.25;5114593;28;20019;-75
2023/08/31 04:47:15;;;;;;;24.98;8.90;;;;;;;22.77;44.93;98810.22;5114532;28;20027;-75
2023/08/31 04:49:41;;;;;;;9.45;6.32;;;;;;;22.90;44.95;98818.97;5114501;28;20049;-75
2023/08/31 04:52:06;;;;;;;13.23;4.63;;;;;;;23.03;44.92;98821.19;5114306;28;20453;-75
2023/08/31 04:54:32;;;;;;;23.27;5.75;;;;;;;23.27;44.92;98828.47;5096083;28;20019;-75
2023/08/31 04:56:57;;;;;;;9.75;4.82;;;;;;;23.30;45.10;98818.25;5095982;28;20479;-75
2023/08/31 04:59:22;;;;;;;13.57;4.65;;;;;;;23.31;45.18;98824.72;5114192;28;20530;-75
2023/08/31 05:01:48;;;;;;;13.88;4.90;;;;;;;23.20;44.88;98825.72;5095943;28;20499;-75
2023/08/31 05:04:13;;;;;;;12.25;3.40;;;;;;;23.22;44.71;98823.22;5114206;28;20038;-75
2023/08/31 05:06:39;;;;;;;21.52;4.03;;;;;;;23.30;44.56;98823.13;5114053;28;20023;-75
2023/08/31 05:09:06;;;;;;;18.27;4.88;;;;;;;23.17;44.35;98818.03;5114177;28;20027;-75
2023/08/31 05:11:31;;;;;;;12.05;3.80;;;;;;;22.99;45.45;98815.53;5095639;28;20026;-75
2023/08/31 05:13:56;;;;;;;13.80;3.95;;;;;;;22.85;45.64;98823.13;5114027;28;20031;-75
2023/08/31 05:16:22;;;;;;;11.40;4.45;;;;;;;22.94;45.30;98833.94;5095589;28;20032;-75
2023/08/31 05:18:49;;;;;;;24.13;6.07;;;;;;;22.88;45.60;98826.31;5095671;28;20032;-75
2023/08/31 05:21:15;;;;;;;17.52;4.20;;;;;;;22.78;45.37;98834.63;5113861;28;20051;-75
2023/08/31 05:23:40;;;;;;;10.63;4.35;;;;;;;22.82;45.28;98828.88;5113846;28;20112;-75
2023/08/31 05:26:06;;;;;;;30.73;6.47;;;;;;;22.76;45.22;98828.56;5113789;28;20026;-75
2023/08/31 05:28:31;;;;;;;22.02;5.15;;;;;;;22.74;45.03;98836.75;5095474;28;20028;-75
2023/08/31 05:31:00;;;;;;;23.42;4.22;;;;;;;22.75;45.28;98838.34;5113659;28;20023;-75
2023/08/31 05:33:27;;;;;;;11.88;3.25;;;;;;;22.94;45.13;98824.59;5113562;28;20034;-75
2023/08/31 05:35:53;;;;;;;11.10;4.07;;;;;;;23.02;44.99;98828.91;5113698;28;20414;-75
2023/08/31 05:38:18;;;;;;;7.88;3.70;;;;;;;23.18;44.47;98827.41;5094873;28;20028;-75
2023/08/31 05:40:46;;;;;;;8.90;4.22;;;;;;;23.23;44.47;98826.91;5112656;28;20553;-75
2023/08/31 05:43:15;;;;;;;11.95;3.97;;;;;;;23.23;44.65;98836.28;5113402;28;20027;-75
2023/08/31 05:45:41;;;;;;;15.05;4.57;;;;;;;23.30;44.64;98834.53;5113485;28;20051;-76
2023/08/31 05:48:07;;;;;;;13.80;3.75;;;;;;;23.51;44.10;98842.66;5113418;28;20031;-76
2023/08/31 05:50:33;;;;;;;17.75;4.53;;;;;;;23.72;44.05;98839.78;5113268;28;20030;-76
2023/08/31 05:52:58;;;;;;;33.20;4.88;;;;;;;23.82;43.69;98836.69;5113160;28;20027;-76
2023/08/31 05:55:24;;;;;;;10.73;3.80;;;;;;;23.76;43.78;98846.22;5113276;28;20076;-75
2023/08/31 05:57:50;;;;;;;19.35;4.10;;;;;;;23.70;43.67;98837.38;5113012;28;20066;-75
2023/08/31 06:00:17;;;;;;;12.32;4.00;;;;;;;23.82;43.66;98838.75;5113185;28;20019;-75
2023/08/31 06:02:44;;;;;;;12.82;4.55;;;;;;;23.88;43.31;98836.97;5112971;28;20024;-76
2023/08/31 06:05:12;;;;;;;18.08;4.57;;;;;;;23.86;43.18;98848.03;5095407;28;20023;-75
2023/08/31 06:07:38;;;;;;;18.67;3.90;;;;;;;24.02;43.14;98843.63;5112948;28;20027;-76
2023/08/31 06:10:04;;;;;;;15.30;3.70;;;;;;;24.24;42.60;98846.81;5112944;28;20107;-76
2023/08/31 06:12:30;;;;;;;8.88;3.40;;;;;;;24.27;42.78;98837.34;5112773;28;20024;-76
2023/08/31 06:14:55;;;;;;;14.45;4.70;;;;;;;24.44;42.80;98843.09;5112889;28;20411;-75
2023/08/31 06:17:21;;;;;;;8.73;3.60;;;;;;;24.51;42.93;98846.59;5112739;28;20408;-75
2023/08/31 06:19:46;;;;;;;9.88;4.38;;;;;;;24.59;43.07;98850.06;5112895;28;20026;-76
2023/08/31 06:22:12;;;;;;;20.67;5.97;;;;;;;24.87;42.41;98847.75;5112573;28;20015;-75
2023/08/31 06:24:37;;;;;;;12.23;8.45;;;;;;;24.88;42.28;98845.69;5094334;28;20027;-76
2023/08/31 06:27:03;;;;;;;17.15;10.40;;;;;;;25.04;41.43;98859.16;5094233;28;20407;-76
2023/08/31 06:29:28;;;;;;;19.08;8.95;;;;;;;25.08;41.78;98854.94;5112511;28;20411;-76
2023/08/31 06:31:54;;;;;;;19.05;8.55;;;;;;;25.22;41.17;98856.63;5112415;28;20038;-75
2023/08/31 06:34:19;;;;;;;12.73;6.28;;;;;;;25.03;41.54;98869.81;5094046;28;20027;-75
2023/08/31 06:36:45;;;;;;;19.15;6.18;;;;;;;24.94;41.21;98870.44;5094205;28;20118;-76
2023/08/31 06:39:10;;;;;;;18.45;7.80;;;;;;;24.94;42.00;98872.50;5112351;28;20076;-75
2023/08/31 06:41:36;;;;;;;18.00;8.73;;;;;;;24.84;41.82;98874.38;5112303;28;20027;-76
2023/08/31 06:44:02;;;;;;;13.50;8.18;;;;;;;24.75;42.42;98875.00;5093975;28;20077;-76
2023/08/31 06:46:28;;;;;;;14.73;7.90;;;;;;;24.77;42.11;98871.69;5112377;28;20027;-76
2023/08/31 06:48:54;;;;;;;14.18;6.93;;;;;;;24.83;42.69;98871.97;5112094;28;20027;-76
2023/08/31 06:51:19;;;;;;;13.77;7.35;;;;;;;24.97;42.89;98873.66;5111738;28;20019;-76
2023/08/31 06:53:45;;;;;;;15.95;7.18;;;;;;;24.95;43.06;98874.09;5093721;28;20492;-76
2023/08/31 06:56:10;;;;;;;19.88;9.00;;;;;;;25.13;42.47;98870.75;5112034;28;20405;-76
2023/08/31 06:58:36;;;;;;;15.68;8.85;;;;;;;25.25;42.56;98872.09;5093589;28;20052;-76
2023/08/31 07:01:05;;;;;;;15.60;8.65;;;;;;;25.50;41.81;98871.41;5093781;28;20020;-76
2023/08/31 07:03:31;;;;;;;15.30;7.30;;;;;;;25.81;41.30;98867.25;5093586;28;20028;-76
2023/08/31 07:05:56;;;;;;;19.88;7.63;;;;;;;26.07;40.22;98875.91;5111925;28;20035;-76
2023/08/31 07:08:22;;;;;;;14.18;9.40;;;;;;;26.28;39.98;98862.19;5111811;28;20479;-76
2023/08/31 07:10:50;;;;;;;16.38;7.03;;;;;;;26.54;39.81;98863.00;5111843;28;20028;-76
2023/08/31 07:13:15;;;;;;;8.48;4.93;;;;;;;26.72;38.95;98855.84;5111716;28;20023;-76
2023/08/31 07:15:41;;;;;;;8.27;3.95;;;;;;;26.90;37.74;98858.13;5093471;28;20027;-74
2023/08/31 07:18:07;;;;;;;6.78;2.08;;;;;;;26.82;36.18;98866.16;5093340;28;20412;-76
2023/08/31 07:20:33;;;;;;;4.72;1.90;;;;;;;26.90;36.33;98867.53;5093486;28;20035;-76
2023/08/31 07:22:59;;;;;;;10.45;1.92;;;;;;;27.03;35.76;98861.78;5111510;28;20019;-76
2023/08/31 07:25:25;;;;;;;2.78;1.30;;;;;;;26.99;35.54;98866.03;5093332;28;20027;-76
2023/08/31 07:27:50;;;;;;;9.95;2.58;;;;;;;27.21;35.63;98876.75;5111655;28;20024;-76
2023/08/31 07:30:16;;;;;;;6.90;2.05;;;;;;;27.22;35.40;98864.81;5111470;28;20436;-76
2023/08/31 07:32:41;;;;;;;4.25;1.95;;;;;;;27.19;35.18;98871.50;5111528;28;20028;-76
2023/08/31 07:35:07;;;;;;;7.05;2.13;;;;;;;27.42;35.37;98872.31;5111357;28;20036;-76
2023/08/31 07:37:33;;;;;;;7.18;2.85;;;;;;;27.33;34.74;98864.41;5111525;28;20043;-76
2023/08/31 07:39:58;;;;;;;7.00;1.60;;;;;;;27.40;34.88;98869.91;5111495;28;20027;-76
2023/08/31 07:42:24;;;;;;;3.58;2.15;;;;;;;27.35;35.36;98859.03;5093241;28;20407;-76
2023/08/31 07:44:49;;;;;;;9.65;2.15;;;;;;;27.81;34.31;98858.59;5093162;28;20453;-76
2023/08/31 07:47:15;;;;;;;6.32;2.05;;;;;;;27.61;34.62;98856.84;5093025;28;20493;-76
2023/08/31 07:49:41;;;;;;;5.63;2.47;;;;;;;27.75;33.92;98854.69;5111258;28;20026;-76
2023/08/31 07:52:06;;;;;;;5.78;2.03;;;;;;;27.80;33.51;98862.72;5093096;28;20020;-76
2023/08/31 07:54:32;;;;;;;5.68;2.00;;;;;;;27.93;33.35;98845.38;5111252;28;20027;-76
2023/08/31 07:56:57;;;;;;;5.28;1.92;;;;;;;27.94;32.97;98849.06;5111343;28;20092;-76
2023/08/31 07:59:23;;;;;;;9.48;2.20;;;;;;;28.17;33.19;98853.50;5111131;28;20044;-76
2023/08/31 08:01:48;;;;;;;7.75;3.83;;;;;;;28.23;32.31;98851.66;5111950;28;20031;-76
2023/08/31 08:04:14;;;;;;;5.05;2.70;;;;;;;28.05;32.47;98852.34;5096713;28;20047;-76
2023/08/31 08:06:40;;;;;;;4.25;1.75;;;;;;;28.35;32.62;98847.06;5115287;28;20026;-76
2023/08/31 08:09:05;;;;;;;12.23;3.03;;;;;;;28.52;32.12;98846.81;5115324;28;20080;-76
2023/08/31 08:11:31;;;;;;;5.15;2.30;;;;;;;28.76;31.69;98847.03;5115242;28;20026;-76
2023/08/31 08:13:57;;;;;;;8.35;1.80;;;;;;;28.90;31.46;98842.78;5115134;28;20371;-76
2023/08/31 08:16:23;;;;;;;10.30;1.73;;;;;;;28.75;30.89;98847.50;5115235;28;20054;-76
2023/08/31 08:18:49;;;;;;;4.30;2.25;;;;;;;28.80;31.07;98847.69;5114955;28;20030;-76
2023/08/31 08:21:15;;;;;;;3.78;1.38;;;;;;;29.31;31.08;98842.63;5115071;28;20019;-76
2023/08/31 08:23:40;;;;;;;7.20;2.10;;;;;;;29.03;30.90;98848.41;5114943;28;20026;-76
2023/08/31 08:26:05;;;;;;;9.23;1.55;;;;;;;29.05;30.74;98845.03;5096686;28;20020;-76
2023/08/31 08:28:31;;;;;;;6.47;1.75;;;;;;;28.71;30.60;98834.06;5096733;28;20411;-76
2023/08/31 08:30:56;;;;;;;3.63;1.70;;;;;;;28.85;31.11;98835.56;5096418;28;20019;-76
2023/08/31 08:33:22;;;;;;;2.75;1.40;;;;;;;29.35;30.57;98837.50;5114910;28;20470;-76
2023/08/31 08:35:47;;;;;;;4.20;1.42;;;;;;;29.22;29.91;98834.81;5114748;28;20019;-76
2023/08/31 08:38:13;;;;;;;4.53;1.85;;;;;;;29.17;30.01;98831.75;5114825;28;20019;-76
2023/08/31 08:40:38;;;;;;;3.80;1.83;;;;;;;29.48;30.29;98840.25;5114625;28;20031;-76
2023/08/31 08:43:07;;;;;;;4.68;1.73;;;;;;;29.57;29.86;98842.31;5114706;28;20588;-76
2023/08/31 08:45:38;;;;;;;7.63;2.05;;;;;;;29.68;30.13;98842.63;5096221;28;20024;-76
2023/08/31 08:48:08;;;;;;;6.40;1.98;;;;;;;29.74;29.33;98834.13;5114542;28;20024;-76
2023/08/31 08:50:35;;;;;;;8.93;2.38;;;;;;;29.31;29.85;98836.88;5114365;28;20076;-76
2023/08/31 08:53:04;;;;;;;4.75;1.58;;;;;;;29.20;30.41;98828.72;5114482;28;20028;-76
2023/08/31 08:55:30;;;;;;;5.22;2.65;;;;;;;29.65;30.33;98828.38;5114371;28;20034;-76
2023/08/31 08:57:57;;;;;;;4.47;2.78;;;;;;;30.12;29.69;98829.09;5114278;28;20133;-76
2023/08/31 09:00:23;;;;;;;6.38;1.83;;;;;;;29.98;29.63;98824.78;5104276;27;20562;-77
2023/08/31 09:02:48;;;;;;;5.88;2.15;;;;;;;30.16;28.59;98826.84;5116513;27;20027;-76
2023/08/31 09:05:14;;;;;;;6.07;2.15;;;;;;;30.45;28.50;98827.50;5134688;27;20021;-76
2023/08/31 09:08:07;;;;;;;8.88;2.42;;;;;;;30.79;29.56;98831.19;5135124;27;20072;-76
2023/08/31 09:10:43;;;;;;;5.72;1.48;;;;;;;30.04;28.64;98834.38;5116733;27;20411;-76
2023/08/31 09:13:14;;;;;;;4.25;1.88;;;;;;;29.87;28.35;98821.63;5134319;27;20060;-76
2023/08/31 09:15:47;;;;;;;4.53;1.75;;;;;;;30.12;28.39;98831.97;5134512;27;20613;-76
2023/08/31 09:18:26;;;;;;;4.18;1.67;;;;;;;30.30;27.79;98825.34;5134650;27;20051;-77
2023/08/31 09:20:52;;;;;;;4.32;2.10;;;;;;;30.34;28.21;98828.03;5116030;27;20511;-76
2023/08/31 09:23:17;;;;;;;6.80;2.00;;;;;;;30.86;27.55;98827.13;5134524;27;20020;-76
2023/08/31 09:25:50;;;;;;;6.50;3.17;;;;;;;31.04;26.77;98818.31;5115861;27;20026;-76
2023/08/31 09:28:18;;;;;;;4.53;1.77;;;;;;;31.18;27.93;98818.84;5115969;27;20028;-77
2023/08/31 09:30:46;;;;;;;7.20;2.78;;;;;;;31.08;27.38;98818.16;5134070;27;20031;-77
2023/08/31 09:33:16;;;;;;;4.43;2.05;;;;;;;30.76;27.92;98812.75;5134280;27;20022;-76
2023/08/31 09:36:06;;;;;;;6.97;3.47;;;;;;;30.47;27.99;98816.28;5115692;27;20019;-76
2023/08/31 09:38:31;;;;;;;7.35;2.33;;;;;;;29.88;28.41;98805.91;5115128;27;20031;-76
2023/08/31 09:41:06;;;;;;;8.57;2.88;;;;;;;29.98;28.58;98807.50;5115582;27;20547;-76
2023/08/31 09:43:31;;;;;;;4.38;2.30;;;;;;;30.35;28.53;98812.31;5134159;27;20047;-76
2023/08/31 09:45:59;;;;;;;9.90;4.15;;;;;;;30.70;28.05;98814.72;5133959;27;20046;-76
2023/08/31 09:48:26;;;;;;;5.78;2.03;;;;;;;30.50;27.73;98810.34;5133962;27;20471;-76
2023/08/31 09:50:52;;;;;;;5.45;2.45;;;;;;;30.74;27.58;98811.66;5133902;27;20160;-77
2023/08/31 09:53:20;;;;;;;6.40;2.13;;;;;;;31.17;27.46;98815.19;5133982;27;20023;-77
2023/08/31 09:55:48;;;;;;;8.20;2.85;;;;;;;31.50;27.38;98807.69;5134063;27;20068;-76
2023/08/31 09:58:19;;;;;;;7.35;2.40;;;;;;;31.12;27.12;98815.06;5115184;27;20461;-76
2023/08/31 10:00:46;;;;;;;6.32;2.33;;;;;;;31.03;27.01;98815.94;5115210;27;20027;-77
2023/08/31 10:03:15;;;;;;;6.30;2.95;;;;;;;30.99;27.22;98806.66;5133729;27;20444;-77
2023/08/31 10:05:42;;;;;;;2.43;1.70;;;;;;;30.61;27.07;98812.66;5115091;27;20455;-76
2023/08/31 10:08:08;;;;;;;6.45;2.10;;;;;;;31.01;27.01;98804.06;5133590;27;20120;-77
2023/08/31 10:10:34;;;;;;;4.78;2.72;;;;;;;31.33;26.40;98818.94;5115335;27;20022;-77
2023/08/31 10:13:02;;;;;;;3.85;2.10;;;;;;;31.88;26.08;98816.81;5133372;27;20027;-77
2023/08/31 10:15:35;;;;;;;7.07;2.22;;;;;;;32.34;25.53;98809.66;5114878;27;20053;-77
2023/08/31 10:18:02;;;;;;;4.88;2.00;;;;;;;32.49;26.30;98819.13;5133470;27;20072;-77
2023/08/31 10:20:31;;;;;;;5.75;2.55;;;;;;;32.64;26.07;98800.91;5134056;27;20515;-77
2023/08/31 10:22:58;;;;;;;4.00;2.22;;;;;;;32.37;25.40;98802.91;5114807;27;20011;-77
2023/08/31 10:25:23;;;;;;;4.00;2.08;;;;;;;32.73;26.41;98802.88;5132554;27;20455;-77
2023/08/31 10:27:52;;;;;;;3.92;1.48;;;;;;;32.57;24.79;98810.81;5133412;27;20094;-77
2023/08/31 10:30:25;;;;;;;5.50;2.00;;;;;;;32.30;25.22;98811.97;5133237;27;20043;-77
2023/08/31 10:33:23;;;;;;;12.35;2.28;;;;;;;31.50;25.83;98810.59;5132942;27;21018;-77
2023/08/31 10:35:55;;;;;;;38.30;4.13;;;;;;;31.29;26.20;98816.22;5076951;27;20514;-77
2023/08/31 10:38:28;;;;;;;17.73;2.17;;;;;;;31.42;26.27;98813.06;5114445;27;20019;-77
2023/08/31 10:41:06;;;;;;;5.07;2.53;;;;;;;31.93;25.63;98816.09;5132863;27;20023;-78
2023/08/31 10:43:50;;;;;;;2.97;1.85;;;;;;;31.99;25.65;98817.00;5132947;27;20411;-77
2023/08/31 10:46:27;;;;;;;9.10;2.85;;;;;;;31.99;26.74;98814.13;5132824;27;20034;-77
2023/08/31 10:48:57;;;;;;;6.57;2.70;;;;;;;31.95;27.31;98821.41;5114419;27;20415;-76
2023/08/31 10:51:27;;;;;;;9.02;2.47;;;;;;;31.85;27.00;98815.72;5114114;27;20123;-77
2023/08/31 10:54:19;;;;;;;7.32;3.42;;;;;;;32.16;27.25;98811.50;5133324;27;20030;-77
2023/08/31 10:57:10;;;;;;;9.50;2.58;;;;;;;31.90;26.59;98815.00;5132705;27;20031;-77
2023/08/31 10:59:53;;;;;;;14.50;2.45;;;;;;;31.77;25.82;98815.28;5132482;27;20071;-77
2023/08/31 11:02:38;;;;;;;4.93;2.30;;;;;;;32.25;25.55;98822.16;5132423;27;20037;-77
2023/08/31 11:05:12;;;;;;;5.40;2.00;;;;;;;32.28;25.29;98818.25;5132514;27;20106;-77
2023/08/31 11:07:40;;;;;;;3.72;2.25;;;;;;;32.10;25.64;98824.25;5132454;27;20457;-77
2023/08/31 11:10:18;;;;;;;4.72;2.10;;;;;;;32.09;25.43;98826.38;5113933;27;20091;-77
2023/08/31 11:12:45;;;;;;;16.52;2.40;;;;;;;32.03;25.25;98817.59;5113740;27;20023;-77
2023/08/31 11:15:13;;;;;;;3.75;2.25;;;;;;;32.30;25.46;98815.66;5132305;27;20027;-76
2023/08/31 11:17:40;;;;;;;11.02;2.38;;;;;;;32.57;25.09;98807.91;5132218;27;20027;-76
2023/08/31 11:20:06;;;;;;;21.25;4.45;;;;;;;32.53;24.73;98801.56;5132326;27;20027;-76
2023/08/31 11:22:32;;;;;;;6.22;2.75;;;;;;;32.83;24.45;98797.75;5132198;27;20406;-77
2023/08/31 11:24:58;;;;;;;6.45;2.63;;;;;;;32.82;24.02;98804.84;5114387;28;20034;-77
2023/08/31 11:27:25;;;;;;;4.65;2.65;;;;;;;32.94;24.27;98808.69;5132132;27;20114;-77
2023/08/31 11:29:50;;;;;;;5.30;2.95;;;;;;;32.91;24.28;98802.59;5113791;27;20023;-77